sensor_id;sensor_type;location;lat;lon;timestamp;P1;durP1;ratioP1;P2;durP2;ratioP2
55467;SDS011;41332;42.702;23.200;2022-12-11T00:01:23;19.60;;;10.45;;
55467;SDS011;41332;42.702;23.200;2022-12-11T00:03:49;14.85;;;8.85;;
55467;SDS011;41332;42.702;23.200;2022-12-11T00:06:16;15.50;;;9.43;;
55467;SDS011;41332;42.702;23.200;2022-12-11T00:08:45;15.27;;;10.40;;
55467;SDS011;41332;42.702;23.200;2022-12-11T00:11:11;16.95;;;9.98;;
55467;SDS011;41332;42.702;23.200;2022-12-11T00:13:38;12.68;;;9.20;;
55467;SDS011;41332;42.702;23.200;2022-12-11T00:16:04;17.63;;;9.55;;
55467;SDS011;41332;42.702;23.200;2022-12-11T00:18:29;20.15;;;10.73;;
55467;SDS011;41332;42.702;23.200;2022-12-11T00:20:58;18.38;;;8.57;;
55467;SDS011;41332;42.702;23.200;2022-12-11T00:23:25;15.45;;;8.93;;
55467;SDS011;41332;42.702;23.200;2022-12-11T00:25:51;9.95;;;7.95;;
55467;SDS011;41332;42.702;23.200;2022-12-11T00:28:16;10.85;;;8.35;;
55467;SDS011;41332;42.702;23.200;2022-12-11T00:30:43;13.65;;;7.97;;
55467;SDS011;41332;42.702;23.200;2022-12-11T00:33:09;10.93;;;7.70;;
55467;SDS011;41332;42.702;23.200;2022-12-11T00:35:38;16.42;;;8.27;;
55467;SDS011;41332;42.702;23.200;2022-12-11T00:38:05;14.98;;;9.80;;
55467;SDS011;41332;42.702;23.200;2022-12-11T00:40:34;13.60;;;9.77;;
55467;SDS011;41332;42.702;23.200;2022-12-11T00:43:00;14.77;;;9.93;;
55467;SDS011;41332;42.702;23.200;2022-12-11T00:45:26;14.40;;;9.32;;
55467;SDS011;41332;42.702;23.200;2022-12-11T00:47:51;12.63;;;8.20;;
55467;SDS011;41332;42.702;23.200;2022-12-11T00:50:17;16.35;;;8.52;;
55467;SDS011;41332;42.702;23.200;2022-12-11T00:52:42;11.52;;;8.43;;
55467;SDS011;41332;42.702;23.200;2022-12-11T00:55:07;19.90;;;9.65;;
55467;SDS011;41332;42.702;23.200;2022-12-11T00:57:33;21.60;;;11.77;;
55467;SDS011;41332;42.702;23.200;2022-12-11T00:59:58;18.88;;;10.15;;
55467;SDS011;41332;42.702;23.200;2022-12-11T01:02:24;17.17;;;10.50;;
55467;SDS011;41332;42.702;23.200;2022-12-11T01:04:49;16.27;;;8.40;;
55467;SDS011;41332;42.702;23.200;2022-12-11T01:07:14;15.15;;;8.10;;
55467;SDS011;41332;42.702;23.200;2022-12-11T01:09:40;9.40;;;6.60;;
55467;SDS011;41332;42.702;23.200;2022-12-11T01:12:24;7.20;;;5.28;;
55467;SDS011;41332;42.702;23.200;2022-12-11T01:14:50;4.68;;;1.77;;
55467;SDS011;41332;42.702;23.200;2022-12-11T01:17:16;2.10;;;1.15;;
55467;SDS011;41332;42.702;23.200;2022-12-11T01:19:41;1.23;;;0.85;;
55467;SDS011;41332;42.702;23.200;2022-12-11T01:22:07;0.82;;;0.82;;
55467;SDS011;41332;42.702;23.200;2022-12-11T01:24:32;3.35;;;0.73;;
55467;SDS011;41332;42.702;23.200;2022-12-11T01:26:57;0.93;;;0.82;;
55467;SDS011;41332;42.702;23.200;2022-12-11T01:29:23;0.38;;;0.38;;
55467;SDS011;41332;42.702;23.200;2022-12-11T01:31:48;0.63;;;0.40;;
55467;SDS011;41332;42.702;23.200;2022-12-11T01:34:13;0.75;;;0.60;;
55467;SDS011;41332;42.702;23.200;2022-12-11T01:36:39;4.70;;;0.45;;
55467;SDS011;41332;42.702;23.200;2022-12-11T01:39:04;3.58;;;0.30;;
55467;SDS011;41332;42.702;23.200;2022-12-11T01:41:30;0.52;;;0.20;;
55467;SDS011;41332;42.702;23.200;2022-12-11T01:46:30;0.70;;;0.13;;
55467;SDS011;41332;42.702;23.200;2022-12-11T01:48:57;0.55;;;0.10;;
55467;SDS011;41332;42.702;23.200;2022-12-11T01:51:25;1.15;;;0.25;;
55467;SDS011;41332;42.702;23.200;2022-12-11T01:53:58;0.10;;;0.10;;
55467;SDS011;41332;42.702;23.200;2022-12-11T01:56:27;0.05;;;0.05;;
55467;SDS011;41332;42.702;23.200;2022-12-11T01:58:59;0.10;;;0.10;;
55467;SDS011;41332;42.702;23.200;2022-12-11T02:01:43;0.13;;;0.10;;
55467;SDS011;41332;42.702;23.200;2022-12-11T02:04:11;0.63;;;0.20;;
55467;SDS011;41332;42.702;23.200;2022-12-11T02:06:39;0.10;;;0.08;;
55467;SDS011;41332;42.702;23.200;2022-12-11T02:09:08;0.30;;;0.08;;
55467;SDS011;41332;42.702;23.200;2022-12-11T02:14:32;0.43;;;0.13;;
55467;SDS011;41332;42.702;23.200;2022-12-11T02:17:10;0.00;;;0.00;;
55467;SDS011;41332;42.702;23.200;2022-12-11T02:22:16;4.20;;;0.30;;
55467;SDS011;41332;42.702;23.200;2022-12-11T02:28:18;0.73;;;0.22;;
55467;SDS011;41332;42.702;23.200;2022-12-11T02:30:51;1.27;;;0.50;;
55467;SDS011;41332;42.702;23.200;2022-12-11T02:33:24;0.77;;;0.13;;
55467;SDS011;41332;42.702;23.200;2022-12-11T02:35:57;0.00;;;0.00;;
55467;SDS011;41332;42.702;23.200;2022-12-11T02:38:25;0.10;;;0.10;;
55467;SDS011;41332;42.702;23.200;2022-12-11T02:40:55;2.10;;;0.57;;
55467;SDS011;41332;42.702;23.200;2022-12-11T02:43:23;4.25;;;0.88;;
55467;SDS011;41332;42.702;23.200;2022-12-11T02:45:49;2.17;;;0.60;;
55467;SDS011;41332;42.702;23.200;2022-12-11T02:48:16;3.42;;;1.00;;
55467;SDS011;41332;42.702;23.200;2022-12-11T02:50:44;8.20;;;2.08;;
55467;SDS011;41332;42.702;23.200;2022-12-11T02:53:12;2.95;;;0.80;;
55467;SDS011;41332;42.702;23.200;2022-12-11T02:55:43;3.72;;;0.77;;
55467;SDS011;41332;42.702;23.200;2022-12-11T02:58:21;1.52;;;0.95;;
55467;SDS011;41332;42.702;23.200;2022-12-11T03:00:50;0.85;;;0.60;;
55467;SDS011;41332;42.702;23.200;2022-12-11T03:03:16;2.63;;;0.90;;
55467;SDS011;41332;42.702;23.200;2022-12-11T03:05:41;0.30;;;0.30;;
55467;SDS011;41332;42.702;23.200;2022-12-11T03:08:07;1.77;;;0.60;;
55467;SDS011;41332;42.702;23.200;2022-12-11T03:10:33;0.95;;;0.57;;
55467;SDS011;41332;42.702;23.200;2022-12-11T03:12:59;0.63;;;0.38;;
55467;SDS011;41332;42.702;23.200;2022-12-11T03:18:12;1.40;;;0.30;;
55467;SDS011;41332;42.702;23.200;2022-12-11T03:21:17;1.20;;;0.10;;
55467;SDS011;41332;42.702;23.200;2022-12-11T03:26:25;0.40;;;0.40;;
55467;SDS011;41332;42.702;23.200;2022-12-11T03:28:58;0.73;;;0.47;;
55467;SDS011;41332;42.702;23.200;2022-12-11T03:31:30;2.00;;;0.73;;
55467;SDS011;41332;42.702;23.200;2022-12-11T03:34:01;1.80;;;0.75;;
55467;SDS011;41332;42.702;23.200;2022-12-11T03:36:30;1.02;;;0.55;;
55467;SDS011;41332;42.702;23.200;2022-12-11T03:39:00;1.83;;;0.70;;
55467;SDS011;41332;42.702;23.200;2022-12-11T03:41:30;1.88;;;0.82;;
55467;SDS011;41332;42.702;23.200;2022-12-11T03:43:58;0.43;;;0.43;;
55467;SDS011;41332;42.702;23.200;2022-12-11T03:46:26;0.80;;;0.80;;
55467;SDS011;41332;42.702;23.200;2022-12-11T03:48:57;1.17;;;0.82;;
55467;SDS011;41332;42.702;23.200;2022-12-11T03:51:31;0.45;;;0.45;;
55467;SDS011;41332;42.702;23.200;2022-12-11T03:53:59;0.73;;;0.40;;
55467;SDS011;41332;42.702;23.200;2022-12-11T03:56:25;0.95;;;0.63;;
55467;SDS011;41332;42.702;23.200;2022-12-11T03:58:52;1.35;;;0.70;;
55467;SDS011;41332;42.702;23.200;2022-12-11T04:01:18;1.98;;;0.70;;
55467;SDS011;41332;42.702;23.200;2022-12-11T04:03:43;0.95;;;0.40;;
55467;SDS011;41332;42.702;23.200;2022-12-11T04:06:09;2.50;;;0.77;;
55467;SDS011;41332;42.702;23.200;2022-12-11T04:08:34;3.95;;;0.90;;
55467;SDS011;41332;42.702;23.200;2022-12-11T04:11:01;2.38;;;1.05;;
55467;SDS011;41332;42.702;23.200;2022-12-11T04:13:46;3.38;;;0.88;;
55467;SDS011;41332;42.702;23.200;2022-12-11T04:16:32;1.27;;;0.90;;
55467;SDS011;41332;42.702;23.200;2022-12-11T04:18:57;3.38;;;0.93;;
55467;SDS011;41332;42.702;23.200;2022-12-11T04:21:41;3.05;;;0.98;;
55467;SDS011;41332;42.702;23.200;2022-12-11T04:24:25;2.10;;;1.20;;
55467;SDS011;41332;42.702;23.200;2022-12-11T04:26:51;2.30;;;1.20;;
55467;SDS011;41332;42.702;23.200;2022-12-11T04:29:16;4.65;;;1.20;;
55467;SDS011;41332;42.702;23.200;2022-12-11T04:31:41;1.65;;;1.05;;
55467;SDS011;41332;42.702;23.200;2022-12-11T04:34:07;2.30;;;1.20;;
55467;SDS011;41332;42.702;23.200;2022-12-11T04:36:33;1.67;;;1.58;;
55467;SDS011;41332;42.702;23.200;2022-12-11T04:38:58;3.25;;;1.00;;
55467;SDS011;41332;42.702;23.200;2022-12-11T04:41:24;3.38;;;1.08;;
55467;SDS011;41332;42.702;23.200;2022-12-11T04:43:49;2.65;;;1.33;;
55467;SDS011;41332;42.702;23.200;2022-12-11T04:46:16;3.13;;;1.13;;
55467;SDS011;41332;42.702;23.200;2022-12-11T04:48:44;1.23;;;1.00;;
55467;SDS011;41332;42.702;23.200;2022-12-11T04:51:10;2.85;;;0.90;;
55467;SDS011;41332;42.702;23.200;2022-12-11T04:53:35;1.42;;;1.33;;
55467;SDS011;41332;42.702;23.200;2022-12-11T04:56:03;3.35;;;1.45;;
55467;SDS011;41332;42.702;23.200;2022-12-11T04:58:30;6.38;;;1.50;;
55467;SDS011;41332;42.702;23.200;2022-12-11T05:00:55;8.27;;;1.20;;
55467;SDS011;41332;42.702;23.200;2022-12-11T05:03:21;8.80;;;1.02;;
55467;SDS011;41332;42.702;23.200;2022-12-11T05:05:47;3.72;;;1.63;;
55467;SDS011;41332;42.702;23.200;2022-12-11T05:08:14;2.22;;;1.00;;
55467;SDS011;41332;42.702;23.200;2022-12-11T05:10:40;7.50;;;1.35;;
55467;SDS011;41332;42.702;23.200;2022-12-11T05:13:05;3.72;;;1.33;;
55467;SDS011;41332;42.702;23.200;2022-12-11T05:15:31;6.00;;;1.35;;
55467;SDS011;41332;42.702;23.200;2022-12-11T05:17:56;5.65;;;1.30;;
55467;SDS011;41332;42.702;23.200;2022-12-11T05:20:21;5.43;;;1.10;;
55467;SDS011;41332;42.702;23.200;2022-12-11T05:22:47;4.80;;;1.30;;
55467;SDS011;41332;42.702;23.200;2022-12-11T05:25:12;7.47;;;1.75;;
55467;SDS011;41332;42.702;23.200;2022-12-11T05:27:38;3.40;;;1.38;;
55467;SDS011;41332;42.702;23.200;2022-12-11T05:30:03;5.57;;;1.67;;
55467;SDS011;41332;42.702;23.200;2022-12-11T05:32:29;8.80;;;2.03;;
55467;SDS011;41332;42.702;23.200;2022-12-11T05:34:55;4.55;;;1.52;;
55467;SDS011;41332;42.702;23.200;2022-12-11T05:37:20;6.38;;;1.05;;
55467;SDS011;41332;42.702;23.200;2022-12-11T05:39:48;6.72;;;1.65;;
55467;SDS011;41332;42.702;23.200;2022-12-11T05:42:14;4.53;;;1.58;;
55467;SDS011;41332;42.702;23.200;2022-12-11T05:44:39;3.33;;;1.33;;
55467;SDS011;41332;42.702;23.200;2022-12-11T05:47:04;5.57;;;1.90;;
55467;SDS011;41332;42.702;23.200;2022-12-11T05:49:30;7.00;;;1.80;;
55467;SDS011;41332;42.702;23.200;2022-12-11T05:51:55;5.30;;;1.70;;
55467;SDS011;41332;42.702;23.200;2022-12-11T05:54:21;7.10;;;1.27;;
55467;SDS011;41332;42.702;23.200;2022-12-11T05:56:47;2.50;;;1.30;;
55467;SDS011;41332;42.702;23.200;2022-12-11T05:59:13;5.15;;;1.40;;
55467;SDS011;41332;42.702;23.200;2022-12-11T06:01:40;8.38;;;2.13;;
55467;SDS011;41332;42.702;23.200;2022-12-11T06:04:07;4.75;;;1.88;;
55467;SDS011;41332;42.702;23.200;2022-12-11T06:06:33;4.70;;;0.93;;
55467;SDS011;41332;42.702;23.200;2022-12-11T06:08:59;6.57;;;1.80;;
55467;SDS011;41332;42.702;23.200;2022-12-11T06:11:26;3.10;;;1.15;;
55467;SDS011;41332;42.702;23.200;2022-12-11T06:13:54;8.20;;;1.27;;
55467;SDS011;41332;42.702;23.200;2022-12-11T06:16:20;3.28;;;2.85;;
55467;SDS011;41332;42.702;23.200;2022-12-11T06:18:46;4.22;;;1.25;;
55467;SDS011;41332;42.702;23.200;2022-12-11T06:21:16;4.72;;;1.60;;
55467;SDS011;41332;42.702;23.200;2022-12-11T06:23:44;4.13;;;1.70;;
55467;SDS011;41332;42.702;23.200;2022-12-11T06:26:11;2.30;;;1.55;;
55467;SDS011;41332;42.702;23.200;2022-12-11T06:28:37;3.17;;;1.13;;
55467;SDS011;41332;42.702;23.200;2022-12-11T06:31:03;2.45;;;1.33;;
55467;SDS011;41332;42.702;23.200;2022-12-11T06:33:29;1.92;;;1.48;;
55467;SDS011;41332;42.702;23.200;2022-12-11T06:35:55;5.13;;;1.58;;
55467;SDS011;41332;42.702;23.200;2022-12-11T06:38:20;6.93;;;1.52;;
55467;SDS011;41332;42.702;23.200;2022-12-11T06:40:53;2.47;;;1.80;;
55467;SDS011;41332;42.702;23.200;2022-12-11T06:43:20;2.60;;;1.65;;
55467;SDS011;41332;42.702;23.200;2022-12-11T06:45:45;3.97;;;1.98;;
55467;SDS011;41332;42.702;23.200;2022-12-11T06:48:13;3.03;;;1.67;;
55467;SDS011;41332;42.702;23.200;2022-12-11T06:50:39;4.97;;;1.75;;
55467;SDS011;41332;42.702;23.200;2022-12-11T06:53:04;2.95;;;1.50;;
55467;SDS011;41332;42.702;23.200;2022-12-11T06:55:29;4.85;;;1.48;;
55467;SDS011;41332;42.702;23.200;2022-12-11T06:57:55;3.67;;;1.23;;
55467;SDS011;41332;42.702;23.200;2022-12-11T07:00:20;3.55;;;1.45;;
55467;SDS011;41332;42.702;23.200;2022-12-11T07:02:45;3.50;;;1.50;;
55467;SDS011;41332;42.702;23.200;2022-12-11T07:05:14;4.22;;;1.33;;
55467;SDS011;41332;42.702;23.200;2022-12-11T07:07:39;4.60;;;1.05;;
55467;SDS011;41332;42.702;23.200;2022-12-11T07:10:05;1.27;;;0.70;;
55467;SDS011;41332;42.702;23.200;2022-12-11T07:12:31;5.40;;;1.25;;
55467;SDS011;41332;42.702;23.200;2022-12-11T07:14:56;1.92;;;0.73;;
55467;SDS011;41332;42.702;23.200;2022-12-11T07:17:21;2.97;;;0.95;;
55467;SDS011;41332;42.702;23.200;2022-12-11T07:19:47;1.70;;;0.73;;
55467;SDS011;41332;42.702;23.200;2022-12-11T07:22:12;3.50;;;0.70;;
55467;SDS011;41332;42.702;23.200;2022-12-11T07:24:37;2.45;;;0.52;;
55467;SDS011;41332;42.702;23.200;2022-12-11T07:27:03;4.40;;;0.70;;
55467;SDS011;41332;42.702;23.200;2022-12-11T07:29:28;1.10;;;1.00;;
55467;SDS011;41332;42.702;23.200;2022-12-11T07:31:54;4.10;;;0.95;;
55467;SDS011;41332;42.702;23.200;2022-12-11T07:34:19;3.03;;;0.80;;
55467;SDS011;41332;42.702;23.200;2022-12-11T07:36:45;3.75;;;0.65;;
55467;SDS011;41332;42.702;23.200;2022-12-11T07:39:11;3.85;;;0.77;;
55467;SDS011;41332;42.702;23.200;2022-12-11T07:41:36;2.88;;;0.88;;
55467;SDS011;41332;42.702;23.200;2022-12-11T07:44:02;1.00;;;0.90;;
55467;SDS011;41332;42.702;23.200;2022-12-11T07:46:29;4.30;;;0.85;;
55467;SDS011;41332;42.702;23.200;2022-12-11T07:48:56;2.80;;;0.50;;
55467;SDS011;41332;42.702;23.200;2022-12-11T07:51:25;2.83;;;0.60;;
55467;SDS011;41332;42.702;23.200;2022-12-11T07:53:58;4.65;;;0.70;;
55467;SDS011;41332;42.702;23.200;2022-12-11T07:56:25;2.88;;;0.63;;
55467;SDS011;41332;42.702;23.200;2022-12-11T07:58:51;2.83;;;0.52;;
55467;SDS011;41332;42.702;23.200;2022-12-11T08:01:18;4.30;;;1.50;;
55467;SDS011;41332;42.702;23.200;2022-12-11T08:03:46;3.08;;;0.85;;
55467;SDS011;41332;42.702;23.200;2022-12-11T08:06:13;2.75;;;0.70;;
55467;SDS011;41332;42.702;23.200;2022-12-11T08:08:39;2.45;;;0.40;;
55467;SDS011;41332;42.702;23.200;2022-12-11T08:11:06;2.83;;;1.00;;
55467;SDS011;41332;42.702;23.200;2022-12-11T08:13:34;1.55;;;0.40;;
55467;SDS011;41332;42.702;23.200;2022-12-11T08:16:03;2.33;;;0.93;;
55467;SDS011;41332;42.702;23.200;2022-12-11T08:18:30;3.75;;;1.10;;
55467;SDS011;41332;42.702;23.200;2022-12-11T08:20:56;2.43;;;0.67;;
55467;SDS011;41332;42.702;23.200;2022-12-11T08:23:21;4.85;;;0.98;;
55467;SDS011;41332;42.702;23.200;2022-12-11T08:25:47;6.55;;;0.90;;
55467;SDS011;41332;42.702;23.200;2022-12-11T08:28:12;0.75;;;0.68;;
55467;SDS011;41332;42.702;23.200;2022-12-11T08:30:38;2.22;;;0.68;;
55467;SDS011;41332;42.702;23.200;2022-12-11T08:33:04;2.22;;;0.90;;
55467;SDS011;41332;42.702;23.200;2022-12-11T08:35:30;2.17;;;0.45;;
55467;SDS011;41332;42.702;23.200;2022-12-11T08:37:56;2.45;;;0.65;;
55467;SDS011;41332;42.702;23.200;2022-12-11T08:40:21;4.70;;;0.55;;
55467;SDS011;41332;42.702;23.200;2022-12-11T08:42:47;1.38;;;0.57;;
55467;SDS011;41332;42.702;23.200;2022-12-11T08:45:12;3.70;;;0.57;;
55467;SDS011;41332;42.702;23.200;2022-12-11T08:47:38;3.42;;;0.70;;
55467;SDS011;41332;42.702;23.200;2022-12-11T08:50:03;1.65;;;0.40;;
55467;SDS011;41332;42.702;23.200;2022-12-11T08:52:29;2.38;;;0.50;;
55467;SDS011;41332;42.702;23.200;2022-12-11T08:54:56;0.55;;;0.22;;
55467;SDS011;41332;42.702;23.200;2022-12-11T08:57:22;1.17;;;0.30;;
55467;SDS011;41332;42.702;23.200;2022-12-11T08:59:48;1.65;;;0.88;;
55467;SDS011;41332;42.702;23.200;2022-12-11T09:02:13;3.58;;;0.50;;
55467;SDS011;41332;42.702;23.200;2022-12-11T09:04:38;1.65;;;0.40;;
55467;SDS011;41332;42.702;23.200;2022-12-11T09:07:04;1.98;;;0.93;;
55467;SDS011;41332;42.702;23.200;2022-12-11T09:09:29;2.15;;;0.60;;
55467;SDS011;41332;42.702;23.200;2022-12-11T09:11:55;1.38;;;0.70;;
55467;SDS011;41332;42.702;23.200;2022-12-11T09:14:21;5.22;;;0.70;;
55467;SDS011;41332;42.702;23.200;2022-12-11T09:16:47;3.75;;;1.35;;
55467;SDS011;41332;42.702;23.200;2022-12-11T09:19:12;2.10;;;0.70;;
55467;SDS011;41332;42.702;23.200;2022-12-11T09:21:39;3.42;;;1.55;;
55467;SDS011;41332;42.702;23.200;2022-12-11T09:24:05;2.13;;;1.03;;
55467;SDS011;41332;42.702;23.200;2022-12-11T09:26:31;1.48;;;0.80;;
55467;SDS011;41332;42.702;23.200;2022-12-11T09:28:56;0.93;;;0.85;;
55467;SDS011;41332;42.702;23.200;2022-12-11T09:31:24;3.78;;;1.00;;
55467;SDS011;41332;42.702;23.200;2022-12-11T09:34:04;2.20;;;1.30;;
55467;SDS011;41332;42.702;23.200;2022-12-11T09:36:31;3.70;;;0.90;;
55467;SDS011;41332;42.702;23.200;2022-12-11T09:39:00;0.80;;;0.73;;
55467;SDS011;41332;42.702;23.200;2022-12-11T09:41:36;5.13;;;1.88;;
55467;SDS011;41332;42.702;23.200;2022-12-11T09:46:40;1.38;;;0.80;;
55467;SDS011;41332;42.702;23.200;2022-12-11T09:55:03;3.50;;;0.88;;
55467;SDS011;41332;42.702;23.200;2022-12-11T10:00:18;4.30;;;0.60;;
55467;SDS011;41332;42.702;23.200;2022-12-11T10:13:48;1.95;;;0.60;;
55467;SDS011;41332;42.702;23.200;2022-12-11T10:16:35;2.22;;;0.93;;
55467;SDS011;41332;42.702;23.200;2022-12-11T10:19:02;0.95;;;0.60;;
55467;SDS011;41332;42.702;23.200;2022-12-11T10:21:30;0.90;;;0.80;;
55467;SDS011;41332;42.702;23.200;2022-12-11T10:24:04;0.98;;;0.50;;
55467;SDS011;41332;42.702;23.200;2022-12-11T10:26:36;5.55;;;0.80;;
55467;SDS011;41332;42.702;23.200;2022-12-11T10:29:04;2.08;;;0.60;;
55467;SDS011;41332;42.702;23.200;2022-12-11T10:31:52;0.50;;;0.50;;
55467;SDS011;41332;42.702;23.200;2022-12-11T10:36:52;3.60;;;1.00;;
55467;SDS011;41332;42.702;23.200;2022-12-11T10:39:19;0.75;;;0.73;;
55467;SDS011;41332;42.702;23.200;2022-12-11T10:41:49;0.57;;;0.50;;
55467;SDS011;41332;42.702;23.200;2022-12-11T10:46:44;0.70;;;0.70;;
55467;SDS011;41332;42.702;23.200;2022-12-11T10:49:24;5.38;;;1.15;;
55467;SDS011;41332;42.702;23.200;2022-12-11T10:51:55;1.08;;;0.50;;
55467;SDS011;41332;42.702;23.200;2022-12-11T10:57:08;2.03;;;0.75;;
55467;SDS011;41332;42.702;23.200;2022-12-11T10:59:36;0.80;;;0.80;;
55467;SDS011;41332;42.702;23.200;2022-12-11T11:02:53;0.50;;;0.50;;
55467;SDS011;41332;42.702;23.200;2022-12-11T11:05:12;1.00;;;0.90;;
55467;SDS011;41332;42.702;23.200;2022-12-11T11:07:39;0.65;;;0.65;;
55467;SDS011;41332;42.702;23.200;2022-12-11T11:17:43;3.65;;;1.83;;
55467;SDS011;41332;42.702;23.200;2022-12-11T11:20:17;0.88;;;0.60;;
55467;SDS011;41332;42.702;23.200;2022-12-11T11:22:48;2.35;;;1.00;;
55467;SDS011;41332;42.702;23.200;2022-12-11T11:25:19;0.70;;;0.70;;
55467;SDS011;41332;42.702;23.200;2022-12-11T11:30:22;1.85;;;1.10;;
55467;SDS011;41332;42.702;23.200;2022-12-11T11:32:53;3.05;;;1.00;;
55467;SDS011;41332;42.702;23.200;2022-12-11T11:35:23;1.05;;;0.73;;
55467;SDS011;41332;42.702;23.200;2022-12-11T11:49:05;0.98;;;0.80;;
55467;SDS011;41332;42.702;23.200;2022-12-11T11:51:47;1.38;;;0.75;;
55467;SDS011;41332;42.702;23.200;2022-12-11T11:57:00;2.20;;;1.23;;
55467;SDS011;41332;42.702;23.200;2022-12-11T11:59:44;3.38;;;1.70;;
55467;SDS011;41332;42.702;23.200;2022-12-11T12:02:19;3.85;;;1.08;;
55467;SDS011;41332;42.702;23.200;2022-12-11T12:04:45;2.50;;;1.20;;
55467;SDS011;41332;42.702;23.200;2022-12-11T12:10:11;1.52;;;1.38;;
55467;SDS011;41332;42.702;23.200;2022-12-11T12:20:49;1.30;;;1.20;;
55467;SDS011;41332;42.702;23.200;2022-12-11T12:26:26;0.80;;;0.80;;
55467;SDS011;41332;42.702;23.200;2022-12-11T12:36:56;1.33;;;0.50;;
55467;SDS011;41332;42.702;23.200;2022-12-11T12:42:34;0.85;;;0.75;;
55467;SDS011;41332;42.702;23.200;2022-12-11T12:47:38;0.50;;;0.50;;
55467;SDS011;41332;42.702;23.200;2022-12-11T12:52:42;1.35;;;1.25;;
55467;SDS011;41332;42.702;23.200;2022-12-11T12:57:41;0.98;;;0.90;;
55467;SDS011;41332;42.702;23.200;2022-12-11T13:00:10;0.63;;;0.63;;
55467;SDS011;41332;42.702;23.200;2022-12-11T13:02:37;1.80;;;1.48;;
55467;SDS011;41332;42.702;23.200;2022-12-11T13:05:19;1.40;;;1.05;;
55467;SDS011;41332;42.702;23.200;2022-12-11T13:07:48;0.70;;;0.70;;
55467;SDS011;41332;42.702;23.200;2022-12-11T13:10:24;0.60;;;0.60;;
55467;SDS011;41332;42.702;23.200;2022-12-11T13:12:54;1.05;;;0.80;;
55467;SDS011;41332;42.702;23.200;2022-12-11T13:18:28;0.60;;;0.60;;
55467;SDS011;41332;42.702;23.200;2022-12-11T13:20:55;1.00;;;1.00;;
55467;SDS011;41332;42.702;23.200;2022-12-11T13:23:27;2.13;;;0.65;;
55467;SDS011;41332;42.702;23.200;2022-12-11T13:25:56;4.57;;;0.82;;
55467;SDS011;41332;42.702;23.200;2022-12-11T13:28:25;0.75;;;0.47;;
55467;SDS011;41332;42.702;23.200;2022-12-11T13:30:57;1.65;;;0.52;;
55467;SDS011;41332;42.702;23.200;2022-12-11T13:33:23;0.85;;;0.63;;
55467;SDS011;41332;42.702;23.200;2022-12-11T13:36:01;0.43;;;0.43;;
55467;SDS011;41332;42.702;23.200;2022-12-11T13:38:35;0.50;;;0.50;;
55467;SDS011;41332;42.702;23.200;2022-12-11T13:41:03;0.90;;;0.60;;
55467;SDS011;41332;42.702;23.200;2022-12-11T13:43:35;1.05;;;0.82;;
55467;SDS011;41332;42.702;23.200;2022-12-11T13:46:03;0.50;;;0.50;;
55467;SDS011;41332;42.702;23.200;2022-12-11T13:51:31;0.98;;;0.35;;
55467;SDS011;41332;42.702;23.200;2022-12-11T13:54:04;0.43;;;0.43;;
55467;SDS011;41332;42.702;23.200;2022-12-11T13:56:40;0.65;;;0.40;;
55467;SDS011;41332;42.702;23.200;2022-12-11T13:59:24;2.03;;;0.70;;
55467;SDS011;41332;42.702;23.200;2022-12-11T14:01:52;1.45;;;0.75;;
55467;SDS011;41332;42.702;23.200;2022-12-11T14:04:23;0.30;;;0.30;;
55467;SDS011;41332;42.702;23.200;2022-12-11T14:06:52;0.70;;;0.70;;
55467;SDS011;41332;42.702;23.200;2022-12-11T14:09:20;0.57;;;0.57;;
55467;SDS011;41332;42.702;23.200;2022-12-11T14:11:48;0.40;;;0.40;;
55467;SDS011;41332;42.702;23.200;2022-12-11T14:14:21;0.55;;;0.38;;
55467;SDS011;41332;42.702;23.200;2022-12-11T14:19:51;2.50;;;1.73;;
55467;SDS011;41332;42.702;23.200;2022-12-11T14:22:21;1.02;;;0.77;;
55467;SDS011;41332;42.702;23.200;2022-12-11T14:24:50;0.40;;;0.40;;
55467;SDS011;41332;42.702;23.200;2022-12-11T14:27:20;0.80;;;0.40;;
55467;SDS011;41332;42.702;23.200;2022-12-11T14:29:47;0.82;;;0.82;;
55467;SDS011;41332;42.702;23.200;2022-12-11T14:32:32;0.55;;;0.52;;
55467;SDS011;41332;42.702;23.200;2022-12-11T14:35:02;2.05;;;0.82;;
55467;SDS011;41332;42.702;23.200;2022-12-11T14:37:30;2.38;;;0.80;;
55467;SDS011;41332;42.702;23.200;2022-12-11T14:40:00;2.83;;;0.60;;
55467;SDS011;41332;42.702;23.200;2022-12-11T14:42:32;0.63;;;0.63;;
55467;SDS011;41332;42.702;23.200;2022-12-11T14:47:40;1.08;;;0.80;;
55467;SDS011;41332;42.702;23.200;2022-12-11T14:50:41;0.98;;;0.98;;
55467;SDS011;41332;42.702;23.200;2022-12-11T14:53:06;1.23;;;1.13;;
55467;SDS011;41332;42.702;23.200;2022-12-11T14:55:37;1.17;;;1.05;;
55467;SDS011;41332;42.702;23.200;2022-12-11T14:58:05;1.00;;;0.95;;
55467;SDS011;41332;42.702;23.200;2022-12-11T15:00:39;1.35;;;1.25;;
55467;SDS011;41332;42.702;23.200;2022-12-11T15:03:29;0.55;;;0.55;;
55467;SDS011;41332;42.702;23.200;2022-12-11T15:05:56;0.93;;;0.82;;
55467;SDS011;41332;42.702;23.200;2022-12-11T15:13:33;0.82;;;0.82;;
55467;SDS011;41332;42.702;23.200;2022-12-11T15:18:31;2.58;;;0.80;;
55467;SDS011;41332;42.702;23.200;2022-12-11T15:21:03;0.45;;;0.45;;
55467;SDS011;41332;42.702;23.200;2022-12-11T15:23:31;1.02;;;1.00;;
55467;SDS011;41332;42.702;23.200;2022-12-11T15:26:40;1.75;;;1.23;;
55467;SDS011;41332;42.702;23.200;2022-12-11T15:29:26;1.65;;;1.55;;
55467;SDS011;41332;42.702;23.200;2022-12-11T15:31:57;1.58;;;1.35;;
55467;SDS011;41332;42.702;23.200;2022-12-11T15:37:23;2.10;;;1.15;;
55467;SDS011;41332;42.702;23.200;2022-12-11T15:39:51;1.10;;;1.10;;
55467;SDS011;41332;42.702;23.200;2022-12-11T15:42:23;1.52;;;1.10;;
55467;SDS011;41332;42.702;23.200;2022-12-11T15:47:24;1.30;;;1.10;;
55467;SDS011;41332;42.702;23.200;2022-12-11T15:49:52;0.90;;;0.90;;
55467;SDS011;41332;42.702;23.200;2022-12-11T15:52:22;1.17;;;1.00;;
55467;SDS011;41332;42.702;23.200;2022-12-11T15:54:48;1.23;;;1.13;;
55467;SDS011;41332;42.702;23.200;2022-12-11T15:57:17;1.25;;;0.95;;
55467;SDS011;41332;42.702;23.200;2022-12-11T15:59:47;1.40;;;1.30;;
55467;SDS011;41332;42.702;23.200;2022-12-11T16:02:14;1.33;;;1.23;;
55467;SDS011;41332;42.702;23.200;2022-12-11T16:04:40;1.25;;;1.10;;
55467;SDS011;41332;42.702;23.200;2022-12-11T16:07:12;1.40;;;1.30;;
55467;SDS011;41332;42.702;23.200;2022-12-11T16:09:43;0.52;;;0.52;;
55467;SDS011;41332;42.702;23.200;2022-12-11T16:12:09;1.20;;;0.98;;
55467;SDS011;41332;42.702;23.200;2022-12-11T16:14:35;2.85;;;1.30;;
55467;SDS011;41332;42.702;23.200;2022-12-11T16:17:02;2.58;;;1.20;;
55467;SDS011;41332;42.702;23.200;2022-12-11T16:19:28;1.38;;;1.27;;
55467;SDS011;41332;42.702;23.200;2022-12-11T16:21:54;2.20;;;2.00;;
55467;SDS011;41332;42.702;23.200;2022-12-11T16:24:19;1.05;;;1.05;;
55467;SDS011;41332;42.702;23.200;2022-12-11T16:26:44;2.38;;;2.08;;
55467;SDS011;41332;42.702;23.200;2022-12-11T16:29:10;2.83;;;1.85;;
55467;SDS011;41332;42.702;23.200;2022-12-11T16:31:35;4.00;;;1.73;;
55467;SDS011;41332;42.702;23.200;2022-12-11T16:34:01;3.30;;;2.10;;
55467;SDS011;41332;42.702;23.200;2022-12-11T16:36:26;2.42;;;1.92;;
55467;SDS011;41332;42.702;23.200;2022-12-11T16:38:51;1.05;;;0.90;;
55467;SDS011;41332;42.702;23.200;2022-12-11T16:41:17;1.55;;;0.65;;
55467;SDS011;41332;42.702;23.200;2022-12-11T16:43:42;1.00;;;0.90;;
55467;SDS011;41332;42.702;23.200;2022-12-11T16:46:08;1.08;;;0.98;;
55467;SDS011;41332;42.702;23.200;2022-12-11T16:48:33;2.05;;;1.83;;
55467;SDS011;41332;42.702;23.200;2022-12-11T16:50:59;1.23;;;1.20;;